Time;durP1;ratioP1;P1;durP2;ratioP2;P2;SDS_P1;SDS_P2;PMS_P1;PMS_P2;Temp;Humidity;BMP_temperature;BMP_pressure;BME280_temperature;BME280_humidity;BME280_pressure;Samples;Min_cycle;Max_cycle;Signal;HPM_P1;HPM_P2
2021/04/27 00:05:12;;;;;;;20.70;9.60;;;;;;;3.38;48.92;98694.03;239408;1196;23120;-71
2021/04/27 00:10:33;;;;;;;21.25;9.85;;;;;;;3.28;49.48;98681.44;239349;1196;23144;-70
2021/04/27 00:15:55;;;;;;;19.17;8.33;;;;;;;3.19;49.26;98691.64;239518;1196;23199;-71
2021/04/27 00:21:04;;;;;;;16.25;8.15;;;;;;;3.06;49.29;98684.02;239581;1195;23115;-71
2021/04/27 00:26:19;;;;;;;14.17;7.80;;;;;;;2.93;49.51;98673.77;239478;1196;23120;-71
2021/04/27 00:31:35;;;;;;;17.47;7.93;;;;;;;2.79;49.73;98671.42;239638;1196;23122;-71
2021/04/27 00:36:44;;;;;;;17.20;8.20;;;;;;;2.64;49.87;98671.96;239625;1196;23125;-71
2021/04/27 00:41:55;;;;;;;17.13;7.87;;;;;;;2.49;49.58;98669.88;239420;1196;23138;-71
2021/04/27 00:47:04;;;;;;;19.25;8.30;;;;;;;2.35;49.82;98664.08;239270;1196;23142;-71
2021/04/27 00:52:13;;;;;;;20.73;9.43;;;;;;;2.21;50.15;98657.45;239351;1196;23140;-70
2021/04/27 00:57:23;;;;;;;20.10;10.10;;;;;;;2.08;50.23;98644.54;239523;1196;23116;-71
2021/04/27 01:02:34;;;;;;;17.15;9.30;;;;;;;1.94;51.24;98647.44;239744;1196;23119;-71
2021/04/27 01:08:03;;;;;;;;;;;;;;;1.81;51.02;98651.16;239462;1196;23141;-72
2021/04/27 01:13:43;;;;;;;19.50;9.10;;;;;;;1.69;51.17;98650.38;239453;1196;21700;-71
2021/04/27 01:18:54;;;;;;;20.43;8.87;;;;;;;1.59;51.87;98653.61;239507;1196;23134;-71
2021/04/27 01:24:34;;;;;;;18.43;9.20;;;;;;;1.52;51.86;98642.38;239351;1197;23112;-70
2021/04/27 01:29:45;;;;;;;16.80;8.30;;;;;;;1.44;52.40;98650.66;239215;1196;23104;-69
2021/04/27 01:34:55;;;;;;;18.30;9.33;;;;;;;1.35;52.60;98647.57;239401;1199;23145;-71
2021/04/27 01:40:29;;;;;;;20.70;10.03;;;;;;;1.25;52.84;98657.91;239502;1198;23166;-71
2021/04/27 01:45:39;;;;;;;25.83;11.73;;;;;;;1.16;53.08;98650.34;239509;1196;23419;-71
2021/04/27 01:50:51;;;;;;;25.63;11.60;;;;;;;1.09;53.52;98648.83;239395;1199;23167;-71
2021/04/27 01:56:17;;;;;;;22.80;12.07;;;;;;;1.00;53.84;98657.09;239427;1195;23130;-70
2021/04/27 02:01:27;;;;;;;21.98;11.60;;;;;;;0.92;54.39;98654.78;239543;1196;23114;-71
2021/04/27 02:06:38;;;;;;;38.30;14.65;;;;;;;0.85;54.63;98654.91;238674;1194;23334;-71
2021/04/27 02:11:50;;;;;;;37.33;17.43;;;;;;;0.74;55.11;98658.34;239447;1196;23141;-71
2021/04/27 02:17:13;;;;;;;33.45;13.75;;;;;;;0.64;55.09;98655.44;239410;1196;23141;-70
2021/04/27 02:22:27;;;;;;;26.73;12.97;;;;;;;0.61;55.90;98654.05;239387;1196;23117;-70
2021/04/27 02:27:59;;;;;;;28.60;12.90;;;;;;;0.59;56.19;98650.02;239632;1196;23138;-71
2021/04/27 02:33:09;;;;;;;28.90;13.30;;;;;;;0.56;56.03;98648.67;239498;1196;23139;-71
2021/04/27 02:38:21;;;;;;;26.63;13.10;;;;;;;0.51;56.45;98644.05;239357;1196;23600;-70
2021/04/27 02:43:31;;;;;;;32.27;12.90;;;;;;;0.45;56.67;98644.97;239432;1196;23147;-70
2021/04/27 02:48:40;;;;;;;27.83;13.13;;;;;;;0.38;56.78;98632.90;239617;1199;26041;-70
2021/04/27 02:53:56;;;;;;;28.83;12.27;;;;;;;0.32;57.67;98637.23;239468;1196;23358;-70
2021/04/27 02:59:07;;;;;;;27.50;11.20;;;;;;;0.29;57.89;98642.97;239642;1196;23115;-70
2021/04/27 03:04:16;;;;;;;24.63;12.40;;;;;;;0.24;58.36;98638.38;239164;1197;23141;-70
2021/04/27 03:09:54;;;;;;;25.10;11.30;;;;;;;0.18;58.12;98633.19;239683;1196;23118;-70
2021/04/27 03:15:12;;;;;;;24.33;10.77;;;;;;;0.13;58.63;98632.03;239499;1196;23236;-70
2021/04/27 03:20:27;;;;;;;21.15;11.00;;;;;;;0.10;58.53;98635.11;239486;1196;23210;-71
2021/04/27 03:25:45;;;;;;;23.85;11.85;;;;;;;0.07;59.04;98638.20;239515;1196;23197;-70
2021/04/27 03:30:55;;;;;;;;;;;;;;;0.04;58.93;98627.30;239230;1200;23123;-71
2021/04/27 03:36:05;;;;;;;20.07;10.80;;;;;;;-0.03;59.27;98635.27;239432;1199;21613;-70
2021/04/27 03:41:15;;;;;;;23.30;11.23;;;;;;;-0.11;59.46;98636.40;239308;1197;23185;-70
2021/04/27 03:46:37;;;;;;;20.18;10.25;;;;;;;-0.16;60.16;98633.62;239460;1196;23170;-71
2021/04/27 03:51:52;;;;;;;23.17;11.90;;;;;;;-0.18;60.60;98633.05;239264;1196;28243;-70
2021/04/27 03:57:02;;;;;;;26.95;11.78;;;;;;;-0.20;60.66;98628.02;239489;1198;23300;-70
2021/04/27 04:02:14;;;;;;;27.60;13.07;;;;;;;-0.15;61.04;98634.41;239651;1196;23135;-71
2021/04/27 04:07:35;;;;;;;28.60;14.15;;;;;;;-0.06;60.89;98640.99;239505;1196;23215;-70
2021/04/27 04:13:07;;;;;;;29.35;14.40;;;;;;;0.09;61.13;98637.98;239407;1196;23127;-71
2021/04/27 04:18:19;;;;;;;30.80;14.90;;;;;;;0.22;60.91;98644.89;239497;1195;23126;-71
2021/04/27 04:23:29;;;;;;;29.03;14.50;;;;;;;0.32;60.90;98650.41;239827;1196;23110;-70
2021/04/27 04:28:39;;;;;;;28.27;14.10;;;;;;;0.42;60.82;98645.42;239566;1196;23141;-71
2021/04/27 04:33:48;;;;;;;26.30;13.55;;;;;;;0.55;60.38;98654.17;239482;1196;23118;-70
2021/04/27 04:39:17;;;;;;;22.97;11.57;;;;;;;0.70;60.77;98656.36;239752;1199;23186;-71
2021/04/27 04:44:46;;;;;;;28.23;12.43;;;;;;;0.83;60.87;98656.95;239425;1196;23112;-71
2021/04/27 04:50:15;;;;;;;19.90;9.90;;;;;;;1.02;60.58;98655.04;239616;1196;23107;-71
2021/04/27 04:55:44;;;;;;;20.55;10.55;;;;;;;1.23;59.69;98660.75;239569;1198;24724;-70
2021/04/27 05:01:01;;;;;;;17.40;8.80;;;;;;;1.45;59.84;98660.19;239434;1196;23114;-71
2021/04/27 05:06:35;;;;;;;21.23;9.90;;;;;;;1.67;59.82;98655.11;239634;1196;23367;-70
2021/04/27 05:12:05;;;;;;;19.07;10.50;;;;;;;1.83;59.14;98650.92;239501;1196;23318;-70
2021/04/27 05:17:16;;;;;;;17.33;9.10;;;;;;;1.97;59.16;98665.49;239349;1195;23210;-73
2021/04/27 05:22:26;;;;;;;16.40;7.57;;;;;;;2.12;59.59;98662.32;239483;1199;26204;-71
2021/04/27 05:27:34;;;;;;;21.75;9.40;;;;;;;2.33;59.47;98668.78;239532;1196;23132;-72
2021/04/27 05:32:43;;;;;;;13.70;8.10;;;;;;;2.52;58.26;98671.25;239348;1196;23118;-69
2021/04/27 05:37:52;;;;;;;11.90;7.30;;;;;;;2.70;58.13;98663.09;238133;1199;23244;-70
2021/04/27 05:43:02;;;;;;;11.15;7.15;;;;;;;2.90;57.01;98669.76;238584;1196;23124;-69
2021/04/27 05:48:11;;;;;;;11.73;5.83;;;;;;;3.09;56.98;98672.94;238198;1199;23237;-69
2021/04/27 05:53:20;;;;;;;12.95;7.30;;;;;;;3.30;56.52;98678.55;238499;1196;26003;-69
2021/04/27 05:58:31;;;;;;;12.90;7.57;;;;;;;3.48;56.97;98686.22;237965;1196;23107;-69
2021/04/27 06:03:40;;;;;;;13.90;7.10;;;;;;;3.73;56.23;98687.61;238895;1196;23118;-69
2021/04/27 06:08:49;;;;;;;16.57;7.73;;;;;;;3.92;55.16;98693.43;240319;1196;23164;-68
2021/04/27 06:14:00;;;;;;;18.97;7.23;;;;;;;4.10;54.89;98689.67;238827;1199;23117;-69
2021/04/27 06:19:10;;;;;;;17.48;7.98;;;;;;;4.31;54.73;98696.00;237851;1199;23263;-69
2021/04/27 06:24:19;;;;;;;14.25;7.45;;;;;;;4.47;54.41;98696.95;237952;1199;23130;-70
2021/04/27 06:29:49;;;;;;;15.87;7.20;;;;;;;4.65;53.74;98702.97;237871;1196;23109;-69
2021/04/27 06:34:59;;;;;;;14.27;5.83;;;;;;;4.78;52.53;98705.20;238645;1196;23087;-69
2021/04/27 06:40:09;;;;;;;14.97;5.43;;;;;;;4.85;51.72;98700.48;239489;1199;24575;-70
2021/04/27 06:45:20;;;;;;;6.17;3.60;;;;;;;5.01;51.03;98698.77;237775;1196;23176;-67
2021/04/27 06:50:29;;;;;;;6.40;3.40;;;;;;;5.14;50.59;98703.63;237997;1196;23097;-68
2021/04/27 06:55:38;;;;;;;10.20;3.97;;;;;;;5.29;49.33;98702.95;237899;1196;23126;-69
2021/04/27 07:00:48;;;;;;;9.00;3.88;;;;;;;5.47;48.87;98706.24;237755;1196;23139;-70
2021/04/27 07:05:58;;;;;;;8.95;3.85;;;;;;;5.58;48.28;98699.14;238891;1196;23115;-70
2021/04/27 07:11:10;;;;;;;6.70;3.50;;;;;;;5.75;48.33;98699.78;239782;1196;23320;-69
2021/04/27 07:16:20;;;;;;;7.73;2.40;;;;;;;6.01;46.90;98699.13;238520;1199;23179;-69
2021/04/27 07:21:29;;;;;;;5.87;2.93;;;;;;;6.17;46.03;98690.16;238157;1199;23144;-70
2021/04/27 07:26:46;;;;;;;5.70;3.00;;;;;;;6.34;45.89;98692.59;239961;1196;23130;-69
2021/04/27 07:32:15;;;;;;;6.53;3.10;;;;;;;6.48;45.13;98692.89;238017;1199;23312;-69
2021/04/27 07:37:25;;;;;;;7.63;2.93;;;;;;;6.68;44.34;98695.56;238384;1196;23122;-70
2021/04/27 07:42:36;;;;;;;7.60;3.40;;;;;;;6.87;44.28;98702.25;239852;1196;23124;-71
2021/04/27 07:47:46;;;;;;;5.50;3.23;;;;;;;7.12;43.99;98701.45;239889;1196;23119;-69
2021/04/27 07:52:56;;;;;;;5.50;2.95;;;;;;;7.21;43.77;98705.19;239747;1196;23241;-70
2021/04/27 07:58:18;;;;;;;6.17;3.50;;;;;;;7.27;42.19;98709.44;239700;1196;23118;-70
2021/04/27 08:03:23;;;;;;;3.67;2.40;;;;;;;7.33;41.88;98703.05;239848;1196;23278;-70
2021/04/27 08:08:33;;;;;;;5.70;2.47;;;;;;;7.41;42.06;98700.91;239949;1196;23128;-70
2021/04/27 08:13:51;;;;;;;3.75;2.60;;;;;;;7.56;41.10;98700.88;238358;1196;23102;-71
2021/04/27 08:19:02;;;;;;;5.90;3.20;;;;;;;7.73;40.52;98689.89;240048;1195;23105;-70
2021/04/27 08:24:13;;;;;;;3.80;2.60;;;;;;;7.89;39.84;98696.00;243404;1195;23120;-71
2021/04/27 08:29:42;;;;;;;4.27;2.90;;;;;;;8.03;39.75;98699.67;240287;1195;23107;-70
2021/04/27 08:34:52;;;;;;;5.73;3.25;;;;;;;8.18;40.37;98692.66;239968;1196;23131;-75
2021/04/27 08:40:05;;;;;;;3.87;2.47;;;;;;;8.38;40.04;98692.56;239992;1196;23210;-73
2021/04/27 08:45:15;;;;;;;3.27;2.20;;;;;;;8.40;38.75;98694.95;240003;1196;23239;-72
2021/04/27 08:50:24;;;;;;;7.47;2.73;;;;;;;8.48;38.45;98696.26;240331;1196;23141;-72
2021/04/27 08:55:34;;;;;;;3.70;2.20;;;;;;;8.64;38.59;98681.74;239707;1196;23138;-73
2021/04/27 09:00:46;;;;;;;5.43;2.13;;;;;;;8.73;38.03;98685.44;239849;1196;23115;-72
2021/04/27 09:05:55;;;;;;;6.53;2.80;;;;;;;8.77;37.77;98685.66;239895;1196;24594;-73
2021/04/27 09:11:27;;;;;;;2.65;2.20;;;;;;;8.97;37.66;98682.05;239714;1196;23215;-73
2021/04/27 09:16:43;;;;;;;3.77;2.27;;;;;;;9.23;37.36;98687.16;239855;1196;23115;-72
2021/04/27 09:22:04;;;;;;;5.00;2.70;;;;;;;9.34;36.34;98674.51;239849;1196;23125;-75
2021/04/27 09:27:33;;;;;;;4.20;2.47;;;;;;;9.29;36.42;98678.04;240025;1195;23242;-74
2021/04/27 09:32:45;;;;;;;4.50;2.90;;;;;;;9.39;36.44;98677.14;239911;1196;24247;-74
2021/04/27 09:38:16;;;;;;;7.40;3.63;;;;;;;9.47;36.96;98670.37;239915;1196;23105;-73
2021/04/27 09:43:29;;;;;;;5.55;3.75;;;;;;;9.59;36.71;98668.10;239726;1195;23196;-72
2021/04/27 09:48:44;;;;;;;5.60;3.30;;;;;;;9.65;36.10;98660.81;239784;1196;23137;-73
2021/04/27 09:54:32;;;;;;;7.90;3.70;;;;;;;9.71;36.09;98647.11;239944;1196;26188;-74
2021/04/27 10:00:38;;;;;;;7.33;3.77;;;;;;;9.87;36.10;98644.25;239910;1196;23126;-73
2021/04/27 10:06:03;;;;;;;6.20;3.47;;;;;;;10.05;36.48;98632.77;239891;1196;27454;-78
2021/04/27 10:11:31;;;;;;;6.20;3.80;;;;;;;10.22;36.48;98639.52;239516;1196;23635;-75
2021/04/27 10:16:58;;;;;;;7.95;3.85;;;;;;;10.49;35.80;98632.73;239498;1196;23395;-74
2021/04/27 10:22:20;;;;;;;6.75;3.80;;;;;;;10.61;35.48;98633.09;239601;1196;23434;-73
2021/04/27 10:28:14;;;;;;;5.90;3.60;;;;;;;10.54;34.47;98628.09;239524;1196;23112;-72
2021/04/27 10:33:24;;;;;;;5.10;3.60;;;;;;;10.43;34.49;98626.66;239852;1196;23100;-73
2021/04/27 10:38:44;;;;;;;5.40;3.40;;;;;;;10.32;34.09;98614.48;239630;1196;23102;-72
2021/04/27 10:44:03;;;;;;;7.55;4.55;;;;;;;10.39;34.31;98599.66;239691;1199;26197;-72
2021/04/27 10:49:25;;;;;;;6.80;4.05;;;;;;;10.51;34.33;98596.54;239776;1196;23145;-72
2021/04/27 10:54:37;;;;;;;7.73;4.10;;;;;;;10.49;34.25;98584.52;240874;1196;23111;-71
2021/04/27 11:00:02;;;;;;;6.07;3.80;;;;;;;10.72;34.87;98580.15;239657;1196;23122;-71
2021/04/27 11:05:14;;;;;;;6.60;3.50;;;;;;;10.83;33.96;98578.06;239651;1196;23132;-71
2021/04/27 11:10:17;;;;;;;6.20;3.85;;;;;;;10.90;32.11;98563.20;239688;1196;23100;-72
2021/04/27 11:15:35;;;;;;;4.37;3.33;;;;;;;10.89;33.71;98568.87;239927;1196;23122;-71
2021/04/27 11:20:48;;;;;;;4.70;3.40;;;;;;;10.96;33.87;98567.38;239739;1195;23116;-71
2021/04/27 11:25:52;;;;;;;4.73;3.00;;;;;;;11.08;33.82;98564.23;239796;1196;23136;-71
2021/04/27 11:31:15;;;;;;;7.60;3.60;;;;;;;11.20;32.95;98557.58;239509;1196;23177;-71
2021/04/27 11:36:34;;;;;;;4.80;3.20;;;;;;;11.49;33.72;98559.17;239454;1199;24769;-71
2021/04/27 11:41:50;;;;;;;11.97;8.07;;;;;;;11.52;33.05;98551.31;239706;1199;23138;-71
2021/04/27 11:46:57;;;;;;;6.90;4.00;;;;;;;11.55;31.60;98539.19;239954;1195;23289;-72
2021/04/27 11:52:02;;;;;;;5.67;3.57;;;;;;;11.57;32.99;98545.84;239944;1196;23105;-72
2021/04/27 11:57:13;;;;;;;4.97;3.47;;;;;;;11.52;32.69;98539.80;240182;1196;23128;-72
2021/04/27 12:02:17;;;;;;;5.30;3.07;;;;;;;11.62;32.37;98534.98;239756;1196;23125;-72
2021/04/27 12:07:26;;;;;;;4.10;3.10;;;;;;;11.70;32.58;98519.30;239862;1196;23117;-71
2021/04/27 12:12:29;;;;;;;4.65;3.15;;;;;;;11.68;33.29;98508.84;239520;1196;23129;-71
2021/04/27 12:17:36;;;;;;;4.33;3.57;;;;;;;11.70;31.89;98512.03;239689;1196;23106;-72
2021/04/27 12:22:49;;;;;;;5.30;3.65;;;;;;;11.74;32.89;98502.28;239629;1196;23330;-72
2021/04/27 12:28:06;;;;;;;6.50;3.80;;;;;;;11.88;32.51;98493.38;239759;1196;23283;-72
2021/04/27 12:33:23;;;;;;;4.73;3.00;;;;;;;11.87;32.35;98492.59;239470;1196;23142;-72
2021/04/27 12:38:45;;;;;;;3.70;3.00;;;;;;;11.90;33.07;98488.52;239838;1196;23138;-70
2021/04/27 12:43:48;;;;;;;4.40;2.70;;;;;;;12.17;33.34;98478.79;239577;1196;23121;-72
2021/04/27 12:48:51;;;;;;;4.27;3.43;;;;;;;12.35;33.00;98477.02;239664;1196;23269;-72
2021/04/27 12:53:54;;;;;;;4.27;3.50;;;;;;;12.27;32.85;98470.47;239629;1196;23153;-73
2021/04/27 12:59:11;;;;;;;3.60;3.05;;;;;;;12.33;32.58;98466.58;239625;1195;23088;-72
2021/04/27 13:04:18;;;;;;;4.70;2.97;;;;;;;12.31;32.53;98460.70;239532;1196;23112;-72
2021/04/27 13:09:27;;;;;;;6.10;3.40;;;;;;;12.26;31.87;98448.20;239784;1196;23112;-71
2021/04/27 13:14:42;;;;;;;3.90;3.00;;;;;;;12.38;32.80;98452.22;239648;1196;23100;-71
2021/04/27 13:20:03;;;;;;;5.20;2.80;;;;;;;12.57;32.63;98449.31;239652;1196;23270;-72
2021/04/27 13:25:31;;;;;;;4.25;3.05;;;;;;;12.60;32.22;98440.63;239799;1196;23109;-72
2021/04/27 13:30:46;;;;;;;4.60;3.20;;;;;;;12.75;32.53;98442.13;239423;1196;23127;-72
2021/04/27 13:35:55;;;;;;;4.10;3.30;;;;;;;12.85;32.42;98436.46;239556;1196;23138;-72
2021/04/27 13:41:01;;;;;;;8.80;3.10;;;;;;;13.06;32.26;98436.67;239929;1196;25975;-72
2021/04/27 13:46:06;;;;;;;4.40;3.00;;;;;;;13.07;32.56;98424.04;240642;1195;23111;-72
2021/04/27 13:51:14;;;;;;;5.30;2.80;;;;;;;13.18;31.81;98418.04;238980;1196;23121;-72
2021/04/27 13:56:17;;;;;;;4.90;2.85;;;;;;;13.11;31.61;98415.02;240025;1195;23197;-73
2021/04/27 14:01:20;;;;;;;4.90;3.10;;;;;;;13.05;31.79;98408.20;239932;1196;23135;-72
2021/04/27 14:06:22;;;;;;;4.75;3.05;;;;;;;13.14;31.73;98403.64;240508;1196;23131;-74
2021/04/27 14:11:26;;;;;;;6.60;3.10;;;;;;;13.18;31.47;98399.21;240428;1196;23147;-75
2021/04/27 14:16:29;;;;;;;3.80;3.05;;;;;;;13.29;31.45;98399.70;239604;1196;23126;-75
2021/04/27 14:21:33;;;;;;;3.40;2.60;;;;;;;13.40;30.54;98392.13;239220;1196;23132;-74
2021/04/27 14:26:35;;;;;;;4.00;2.80;;;;;;;13.42;30.56;98398.00;239474;1196;27502;-74
2021/04/27 14:31:45;;;;;;;5.97;3.10;;;;;;;13.33;30.59;98391.78;239625;1196;23125;-74
2021/04/27 14:36:48;;;;;;;;;;;;;;;13.30;30.60;98392.42;239641;1196;23214;-74
2021/04/27 14:41:51;;;;;;;4.20;3.00;;;;;;;13.31;30.86;98394.79;239589;1196;21673;-74
2021/04/27 14:46:55;;;;;;;5.27;3.87;;;;;;;13.35;30.14;98384.23;239251;1196;25994;-74
2021/04/27 14:51:58;;;;;;;2.95;2.60;;;;;;;13.32;30.49;98379.45;239452;1196;23156;-73
2021/04/27 14:57:01;;;;;;;5.00;2.90;;;;;;;13.26;30.01;98375.33;239289;1196;23128;-74
2021/04/27 15:02:04;;;;;;;4.97;3.33;;;;;;;13.33;30.26;98378.33;239502;1197;27261;-74
2021/04/27 15:07:17;;;;;;;6.53;4.10;;;;;;;13.43;29.83;98363.80;239474;1196;23135;-74
2021/04/27 15:12:22;;;;;;;11.40;3.70;;;;;;;13.40;29.16;98362.53;239374;1196;23205;-74
2021/04/27 15:17:26;;;;;;;4.70;3.40;;;;;;;13.33;29.49;98367.57;239230;1196;23137;-75
2021/04/27 15:22:32;;;;;;;5.65;3.05;;;;;;;13.25;29.37;98352.22;239294;1196;23265;-74
2021/04/27 15:27:35;;;;;;;5.55;3.30;;;;;;;13.11;29.41;98353.17;239102;1196;23211;-73
2021/04/27 15:32:39;;;;;;;5.05;3.00;;;;;;;13.01;29.18;98353.46;239112;1196;23116;-73
2021/04/27 15:37:45;;;;;;;4.65;3.45;;;;;;;12.86;29.76;98343.16;239598;1199;23314;-73
2021/04/27 15:42:49;;;;;;;3.33;2.60;;;;;;;12.84;30.27;98346.98;239403;1196;23137;-74
2021/04/27 15:47:53;;;;;;;5.30;3.00;;;;;;;12.84;30.01;98344.28;239351;1199;26084;-74
2021/04/27 15:52:57;;;;;;;5.87;3.57;;;;;;;12.87;29.79;98339.38;239541;1196;23121;-74
2021/04/27 15:58:07;;;;;;;4.23;2.47;;;;;;;12.81;29.00;98330.67;239812;1196;23139;-73
2021/04/27 16:03:10;;;;;;;5.90;3.00;;;;;;;12.73;29.15;98326.88;239538;1196;23120;-74
2021/04/27 16:08:13;;;;;;;3.97;3.30;;;;;;;12.66;29.85;98321.14;239543;1196;23125;-74
2021/04/27 16:13:16;;;;;;;5.60;3.60;;;;;;;12.54;29.44;98315.61;239325;1196;23121;-73
2021/04/27 16:18:19;;;;;;;4.47;3.10;;;;;;;12.44;30.21;98314.00;239466;1196;23136;-73
2021/04/27 16:23:29;;;;;;;7.03;3.67;;;;;;;12.32;30.57;98318.08;239568;1195;23108;-75
2021/04/27 16:28:33;;;;;;;4.20;2.95;;;;;;;12.19;30.23;98318.17;239381;1196;23087;-74
2021/04/27 16:33:36;;;;;;;3.95;2.95;;;;;;;12.07;30.40;98305.32;239089;1196;23241;-73
2021/04/27 16:38:39;;;;;;;4.00;3.20;;;;;;;11.93;30.68;98308.88;239337;1196;23134;-73
2021/04/27 16:43:41;;;;;;;4.20;3.20;;;;;;;11.78;31.04;98312.73;239475;1199;23112;-75
2021/04/27 16:48:44;;;;;;;5.70;3.80;;;;;;;11.62;31.27;98311.53;239498;1196;23137;-73
2021/04/27 16:53:47;;;;;;;4.25;3.50;;;;;;;11.48;31.65;98314.28;239147;1196;24689;-75
2021/04/27 16:58:49;;;;;;;5.07;3.50;;;;;;;11.27;31.93;98303.25;239293;1196;23132;-73
2021/04/27 17:03:53;;;;;;;5.43;4.10;;;;;;;11.09;32.38;98308.48;239707;1196;23108;-75
2021/04/27 17:08:56;;;;;;;6.45;4.25;;;;;;;10.87;32.68;98313.78;239432;1196;23115;-74
2021/04/27 17:13:59;;;;;;;6.35;4.50;;;;;;;10.64;33.28;98308.38;239462;1196;23139;-73
2021/04/27 17:19:04;;;;;;;6.60;4.20;;;;;;;10.41;33.74;98315.55;239211;1196;23128;-73
2021/04/27 17:24:07;;;;;;;8.50;5.00;;;;;;;10.18;34.07;98309.25;239252;1199;23283;-73
2021/04/27 17:29:10;;;;;;;7.33;4.57;;;;;;;9.90;33.98;98318.03;239390;1199;23078;-73
2021/04/27 17:34:13;;;;;;;7.43;4.73;;;;;;;9.65;34.36;98316.59;239370;1196;22932;-73
2021/04/27 17:39:16;;;;;;;6.70;4.40;;;;;;;9.44;34.66;98320.70;239453;1195;23118;-74
2021/04/27 17:44:23;;;;;;;6.40;4.40;;;;;;;9.23;35.26;98335.17;239440;1196;23160;-74
2021/04/27 17:49:26;;;;;;;6.97;4.90;;;;;;;8.97;35.43;98326.72;239293;1196;23144;-73
2021/04/27 17:54:30;;;;;;;9.15;5.55;;;;;;;8.71;36.09;98327.05;239453;1196;23116;-73
2021/04/27 17:59:33;;;;;;;11.60;6.55;;;;;;;8.49;36.85;98329.45;239168;1199;23108;-73
2021/04/27 18:04:37;;;;;;;9.87;5.77;;;;;;;8.26;36.74;98339.83;239522;1196;23140;-74
2021/04/27 18:09:46;;;;;;;10.63;5.93;;;;;;;8.03;37.36;98344.87;239406;1196;23248;-74
2021/04/27 18:14:49;;;;;;;10.97;6.20;;;;;;;7.83;37.72;98340.50;239258;1197;23571;-74
2021/04/27 18:19:52;;;;;;;10.53;5.70;;;;;;;7.63;38.22;98352.14;239276;1196;23115;-73
2021/04/27 18:24:54;;;;;;;9.35;5.50;;;;;;;7.42;38.16;98351.51;239433;1196;23191;-74
2021/04/27 18:29:57;;;;;;;9.45;5.45;;;;;;;7.25;38.22;98357.22;239162;1196;23762;-73
2021/04/27 18:35:00;;;;;;;8.83;5.40;;;;;;;7.10;38.77;98360.77;239292;1196;23130;-74
2021/04/27 18:40:04;;;;;;;9.60;5.25;;;;;;;6.97;38.91;98364.84;239321;1199;23178;-74
2021/04/27 18:45:08;;;;;;;10.50;5.85;;;;;;;6.84;39.32;98370.75;239597;1196;23117;-73
2021/04/27 18:50:12;;;;;;;12.60;6.87;;;;;;;6.71;39.16;98377.45;239590;1196;23101;-73
2021/04/27 18:55:15;;;;;;;13.70;7.53;;;;;;;6.59;39.48;98380.45;239583;1196;23143;-74
2021/04/27 19:00:19;;;;;;;11.80;6.60;;;;;;;6.48;39.93;98378.89;239525;1196;23190;-74
2021/04/27 19:05:25;;;;;;;12.20;7.93;;;;;;;6.36;39.90;98370.41;239504;1196;23119;-72
2021/04/27 19:10:29;;;;;;;15.30;7.30;;;;;;;6.26;40.49;98372.01;239216;1196;23246;-73
2021/04/27 19:15:32;;;;;;;15.67;8.63;;;;;;;6.16;40.58;98382.68;239439;1196;27332;-74
2021/04/27 19:21:09;;;;;;;14.87;8.43;;;;;;;6.01;41.32;98380.04;261608;1090;26340;-73
2021/04/27 19:26:12;;;;;;;13.63;8.50;;;;;;;5.86;41.73;98376.28;261404;1101;22910;-73
2021/04/27 19:31:15;;;;;;;15.17;8.40;;;;;;;5.75;41.60;98378.16;260997;1097;22751;-74
2021/04/27 19:36:19;;;;;;;14.33;7.83;;;;;;;5.69;42.20;98381.08;260722;1104;22775;-74
2021/04/27 19:41:22;;;;;;;14.57;8.13;;;;;;;5.68;42.41;98387.45;261061;1096;25942;-73
2021/04/27 19:46:25;;;;;;;16.23;9.10;;;;;;;5.59;42.40;98387.98;261372;1097;26723;-75
2021/04/27 19:51:28;;;;;;;16.60;9.00;;;;;;;5.56;42.62;98388.51;261268;1101;22726;-73
2021/04/27 19:56:32;;;;;;;18.87;9.83;;;;;;;5.53;42.70;98386.39;261393;1101;22990;-74
2021/04/27 20:01:35;;;;;;;18.50;9.23;;;;;;;5.46;42.90;98383.20;261136;1101;24183;-73
2021/04/27 20:06:37;;;;;;;15.93;8.70;;;;;;;5.42;42.78;98379.47;261380;1101;24360;-74
2021/04/27 20:11:41;;;;;;;19.27;9.13;;;;;;;5.35;43.27;98379.72;261335;1096;25697;-73
2021/04/27 20:16:44;;;;;;;16.37;8.27;;;;;;;5.27;43.38;98375.74;261292;1097;22761;-73
2021/04/27 20:21:46;;;;;;;15.83;8.73;;;;;;;5.17;43.18;98369.61;261109;1096;22823;-73
2021/04/27 20:26:49;;;;;;;13.50;8.03;;;;;;;5.12;43.50;98376.50;261506;1096;22835;-74
2021/04/27 20:31:52;;;;;;;16.43;8.53;;;;;;;5.07;43.54;98365.86;260774;1097;27141;-74
2021/04/27 20:36:58;;;;;;;16.43;9.23;;;;;;;5.03;44.21;98367.44;260674;1104;22758;-74
2021/04/27 20:42:03;;;;;;;18.80;9.57;;;;;;;4.93;44.30;98368.20;261079;1096;22828;-74
2021/04/27 20:47:07;;;;;;;17.70;9.10;;;;;;;4.84;45.13;98366.31;261346;1096;22800;-73
2021/04/27 20:52:11;;;;;;;19.73;10.43;;;;;;;4.78;44.67;98368.97;261082;1097;23679;-74
2021/04/27 20:57:14;;;;;;;23.13;10.00;;;;;;;4.70;45.33;98364.16;261474;1096;25996;-74
2021/04/27 21:02:17;;;;;;;20.40;10.83;;;;;;;4.59;45.06;98358.00;261214;1097;22744;-72
2021/04/27 21:07:23;;;;;;;20.75;11.35;;;;;;;4.48;45.07;98364.33;261420;1096;22936;-73
2021/04/27 21:12:26;;;;;;;20.13;10.83;;;;;;;4.39;45.53;98352.59;261010;1101;24414;-74
2021/04/27 21:17:30;;;;;;;20.03;11.10;;;;;;;4.31;45.82;98350.44;261234;1101;22895;-73
2021/04/27 21:22:35;;;;;;;18.90;10.60;;;;;;;4.26;46.04;98356.52;261335;1096;25986;-73
2021/04/27 21:27:41;;;;;;;17.63;9.23;;;;;;;4.20;45.93;98350.39;261451;1096;26112;-73
2021/04/27 21:32:47;;;;;;;15.80;9.53;;;;;;;4.21;46.53;98356.48;260754;1104;22743;-72
2021/04/27 21:37:50;;;;;;;18.87;10.00;;;;;;;4.19;46.58;98354.09;261129;1101;22750;-73
2021/04/27 21:42:53;;;;;;;16.43;9.67;;;;;;;4.19;46.69;98353.30;261111;1101;22850;-73
2021/04/27 21:47:55;;;;;;;19.65;9.80;;;;;;;4.21;46.73;98359.95;261124;1096;22783;-74
2021/04/27 21:52:58;;;;;;;18.25;9.75;;;;;;;4.24;46.63;98362.08;261006;1096;22864;-72
2021/04/27 21:58:01;;;;;;;16.93;9.00;;;;;;;4.27;46.57;98352.82;261080;1096;25878;-73
2021/04/27 22:03:15;;;;;;;20.07;10.20;;;;;;;4.22;46.72;98361.52;261329;1096;22737;-72
2021/04/27 22:08:32;;;;;;;16.80;9.57;;;;;;;4.22;46.68;98355.44;261200;1097;25980;-73
2021/04/27 22:13:36;;;;;;;16.20;9.30;;;;;;;4.21;46.87;98356.48;261090;1096;25993;-73
2021/04/27 22:18:40;;;;;;;16.70;9.73;;;;;;;4.15;47.01;98346.91;261059;1097;24547;-73
2021/04/27 22:23:43;;;;;;;16.77;9.20;;;;;;;4.13;47.24;98349.01;261003;1099;23006;-72
2021/04/27 22:28:46;;;;;;;16.60;9.33;;;;;;;4.06;47.17;98343.95;261031;1096;25931;-73
2021/04/27 22:33:51;;;;;;;18.53;9.37;;;;;;;3.99;47.46;98346.00;260970;1096;24382;-72
2021/04/27 22:38:54;;;;;;;14.07;7.90;;;;;;;3.92;47.48;98348.90;261337;1101;23117;-73
2021/04/27 22:43:57;;;;;;;18.77;9.60;;;;;;;3.91;47.93;98345.43;261035;1096;22757;-73
2021/04/27 22:49:00;;;;;;;19.50;9.60;;;;;;;3.83;47.73;98340.60;261121;1101;23185;-74
2021/04/27 22:54:03;;;;;;;22.60;10.17;;;;;;;3.81;47.96;98336.63;261049;1096;26245;-74
2021/04/27 22:59:07;;;;;;;20.73;9.87;;;;;;;3.77;47.92;98342.42;261311;1101;22907;-73
2021/04/27 23:04:16;;;;;;;19.87;9.83;;;;;;;3.69;48.31;98340.23;261300;1101;22751;-72
2021/04/27 23:09:19;;;;;;;21.67;10.37;;;;;;;3.62;48.29;98346.81;261089;1097;22855;-73
2021/04/27 23:14:22;;;;;;;17.77;10.43;;;;;;;3.53;48.42;98335.89;261077;1097;22784;-73
2021/04/27 23:19:25;;;;;;;20.20;10.50;;;;;;;3.47;48.58;98335.06;261068;1101;24101;-73
2021/04/27 23:24:27;;;;;;;18.23;10.70;;;;;;;3.37;49.08;98337.59;261602;1096;22816;-74
2021/04/27 23:29:30;;;;;;;18.27;9.93;;;;;;;3.27;49.33;98332.22;261322;1096;24540;-73
2021/04/27 23:34:34;;;;;;;16.73;9.23;;;;;;;3.15;49.52;98335.01;260792;1097;22758;-73
2021/04/27 23:39:39;;;;;;;20.20;10.25;;;;;;;3.00;49.19;98333.03;260800;1099;23028;-73
2021/04/27 23:44:42;;;;;;;20.93;9.60;;;;;;;2.90;49.56;98329.22;261132;1096;24589;-73
2021/04/27 23:49:46;;;;;;;17.50;9.80;;;;;;;2.82;50.08;98320.94;261293;1096;25861;-72
2021/04/27 23:54:49;;;;;;;15.70;9.33;;;;;;;2.74;50.33;98320.34;260972;1101;24360;-72
